Airfield :
LOGIN :

Register | Disclaimer

   EN    FR    IT 

 










Legend :    VFR   Marginal VFR   IFR   Intensive IFR   Very Intensive IFR
Visi :
Ceiling :
>= 8 km
>= 3000ft
5 to 8 km
1000 to 3000 ft
1500m to 5 km
500 to 1000 ft
800 to 1500m
200 to 500 ft
< 800m
< 200 ft
Symbols :   Thunderstorms  Fog  Heavy snow  Heavy precipitations  Wind > 20 kt
SIGMETs :     Misc.  Thunderstorms  Icing  Turbulence  Mountain Waves  Volcanic Ashes







- Airport Elevation : 12 ft
- IATA code : BCN


LEBL - Barcelone

CURRENT METAR :
  • 162200Z 32004KT 9999 FEW018 SCT037 19/15 Q1026 NOSIG

EXPIRED METARs :
  • 162130Z 33002KT 9999 FEW018 SCT030 19/15 Q1026 NOSIG
  • 162100Z 32004KT 290V350 9999 FEW018 SCT030 19/15 Q1026 NOSIG
  • 162030Z 32004KT 260V350 9999 FEW018 SCT031 20/15 Q1026 NOSIG
  • 162000Z VRB01KT 9999 FEW018 SCT038 19/15 Q1026 NOSIG
  • 161930Z 00000KT 9999 FEW018 22/15 Q1026 NOSIG

TAF TAF LEBL
Valid from the 16 at 18:00 until the 17 at 18:00 UTC


161700Z 1618/1718 18010KT 9999 SCT020 TX24/1712Z TN18/1706Z
PROB30
TEMPO 1618/1712 BKN014
BECMG 1619/1621 VRB03KT
TEMPO 1703/1708 33007KT
BECMG 1710/1712 16005KT
No reported NOTAMs for that airfield.



MET'MAP, your aeronautical weather chart ! - Copyright ORBIFLY December 2007 - Disclaimer

ORBIFLY MET'MAP TEAM :

Programming & Development : Alexandra Zaïnal
Concept & Development : Baudouin d'Aumeries
Co-Development & Prog : Marc-Olivier Méhu
Technical & hardware support : Manuel Goepfert

Contact : metmap@orbifly.com




SOURCES & CREDITS :

   NOAA